sensor_id;sensor_type;location;lat;lon;timestamp;pressure;altitude;pressure_sealevel;temperature;humidity
44127;BME280;29786;50.798;7.302;2023-04-10T00:03:35;99840;;;7.09;91.76
44127;BME280;29786;50.798;7.302;2023-04-10T00:08:32;99840;;;7.06;93.17
44127;BME280;29786;50.798;7.302;2023-04-10T00:13:28;99830;;;7.05;93.32
44127;BME280;29786;50.798;7.302;2023-04-10T00:18:25;99820;;;7.12;92.66
44127;BME280;29786;50.798;7.302;2023-04-10T00:24:35;99820;;;7.04;94.07
44127;BME280;29786;50.798;7.302;2023-04-10T00:29:32;99810;;;6.96;94.18
44127;BME280;29786;50.798;7.302;2023-04-10T00:34:28;99820;;;6.95;92.94
44127;BME280;29786;50.798;7.302;2023-04-10T00:39:25;99810;;;6.89;95.65
44127;BME280;29786;50.798;7.302;2023-04-10T00:45:36;99810;;;6.98;94.4
44127;BME280;29786;50.798;7.302;2023-04-10T00:50:32;99810;;;6.98;94.74
44127;BME280;29786;50.798;7.302;2023-04-10T00:55:29;99800;;;6.8;96.53
44127;BME280;29786;50.798;7.302;2023-04-10T01:00:25;99790;;;6.86;95.9
44127;BME280;29786;50.798;7.302;2023-04-10T01:06:48;99790;;;6.7;97.41
44127;BME280;29786;50.798;7.302;2023-04-10T01:16:32;99790;;;6.54;98.36
44127;BME280;29786;50.798;7.302;2023-04-10T01:21:26;99790;;;6.6;97.06
44127;BME280;29786;50.798;7.302;2023-04-10T01:28:27;99790;;;6.72;96.62
44127;BME280;29786;50.798;7.302;2023-04-10T01:32:33;99790;;;6.69;97.25
44127;BME280;29786;50.798;7.302;2023-04-10T01:37:30;99780;;;6.63;97.43
44127;BME280;29786;50.798;7.302;2023-04-10T01:42:27;99780;;;6.64;97.4
44127;BME280;29786;50.798;7.302;2023-04-10T01:48:36;99770;;;6.49;98.93
44127;BME280;29786;50.798;7.302;2023-04-10T01:53:33;99750;;;6.56;97.93
44127;BME280;29786;50.798;7.302;2023-04-10T01:58:29;99740;;;6.47;98.72
44127;BME280;29786;50.798;7.302;2023-04-10T02:03:26;99740;;;6.3;99.89
44127;BME280;29786;50.798;7.302;2023-04-10T02:09:56;99730;;;6.4;99.5
44127;BME280;29786;50.798;7.302;2023-04-10T02:14:35;99730;;;6.22;100
44127;BME280;29786;50.798;7.302;2023-04-10T02:19:30;99730;;;6.13;100
44127;BME280;29786;50.798;7.302;2023-04-10T02:24:26;99720;;;6.16;100
44127;BME280;29786;50.798;7.302;2023-04-10T02:30:37;99720;;;6.2;100
44127;BME280;29786;50.798;7.302;2023-04-10T02:35:33;99710;;;6.14;100
44127;BME280;29786;50.798;7.302;2023-04-10T02:40:30;99700;;;6.2;100
44127;BME280;29786;50.798;7.302;2023-04-10T02:45:26;99710;;;6.21;100
44127;BME280;29786;50.798;7.302;2023-04-10T02:51:37;99700;;;6.2;99.95
44127;BME280;29786;50.798;7.302;2023-04-10T02:56:34;99700;;;6.28;98.75
44127;BME280;29786;50.798;7.302;2023-04-10T03:01:30;99700;;;6.27;99.05
44127;BME280;29786;50.798;7.302;2023-04-10T03:06:27;99700;;;6.17;99.02
44127;BME280;29786;50.798;7.302;2023-04-10T03:12:38;99700;;;6.34;97.63
44127;BME280;29786;50.798;7.302;2023-04-10T03:16:28;99700;;;6.42;97.08
44127;BME280;29786;50.798;7.302;2023-04-10T03:27:35;99700;;;6.38;96.53
44127;BME280;29786;50.798;7.302;2023-04-10T03:32:32;99690;;;6.33;96.38
44127;BME280;29786;50.798;7.302;2023-04-10T03:37:28;99680;;;6.22;97.05
44127;BME280;29786;50.798;7.302;2023-04-10T03:42:25;99680;;;6.4;96.03
44127;BME280;29786;50.798;7.302;2023-04-10T03:48:35;99680;;;6.25;96.1
44127;BME280;29786;50.798;7.302;2023-04-10T03:53:32;99670;;;6.26;96.23
44127;BME280;29786;50.798;7.302;2023-04-10T03:58:29;99660;;;6.25;96.94
44127;BME280;29786;50.798;7.302;2023-04-10T04:03:25;99650;;;6.13;97.99
44127;BME280;29786;50.798;7.302;2023-04-10T04:09:36;99650;;;5.98;99.06
44127;BME280;29786;50.798;7.302;2023-04-10T04:14:32;99640;;;5.94;100
44127;BME280;29786;50.798;7.302;2023-04-10T04:19:29;99640;;;5.8;100
44127;BME280;29786;50.798;7.302;2023-04-10T04:24:25;99650;;;5.8;100
44127;BME280;29786;50.798;7.302;2023-04-10T04:30:36;99650;;;5.64;100
44127;BME280;29786;50.798;7.302;2023-04-10T04:35:33;99650;;;5.74;100
44127;BME280;29786;50.798;7.302;2023-04-10T04:40:29;99650;;;5.6;100
44127;BME280;29786;50.798;7.302;2023-04-10T04:51:36;99660;;;5.56;100
44127;BME280;29786;50.798;7.302;2023-04-10T04:56:33;99660;;;5.53;100
44127;BME280;29786;50.798;7.302;2023-04-10T05:01:29;99660;;;5.62;100
44127;BME280;29786;50.798;7.302;2023-04-10T05:06:26;99660;;;5.72;100
44127;BME280;29786;50.798;7.302;2023-04-10T05:12:37;99670;;;5.76;100
44127;BME280;29786;50.798;7.302;2023-04-10T05:17:33;99660;;;5.9;100
44127;BME280;29786;50.798;7.302;2023-04-10T05:22:30;99660;;;6.04;100
44127;BME280;29786;50.798;7.302;2023-04-10T05:27:27;99660;;;6.04;100
44127;BME280;29786;50.798;7.302;2023-04-10T05:33:37;99660;;;6.19;100
44127;BME280;29786;50.798;7.302;2023-04-10T05:38:33;99660;;;6.3;99.4
44127;BME280;29786;50.798;7.302;2023-04-10T05:43:30;99670;;;6.38;98.15
44127;BME280;29786;50.798;7.302;2023-04-10T05:48:26;99680;;;6.55;97.04
44127;BME280;29786;50.798;7.302;2023-04-10T05:54:37;99670;;;7;93.8
44127;BME280;29786;50.798;7.302;2023-04-10T05:59:34;99670;;;7.2;92.36
44127;BME280;29786;50.798;7.302;2023-04-10T06:04:30;99670;;;7.42;90.43
44127;BME280;29786;50.798;7.302;2023-04-10T06:09:27;99670;;;7.61;88.97
44127;BME280;29786;50.798;7.302;2023-04-10T06:15:37;99670;;;7.93;86.23
44127;BME280;29786;50.798;7.302;2023-04-10T06:20:34;99670;;;8;84.02
44127;BME280;29786;50.798;7.302;2023-04-10T06:25:30;99650;;;7.99;83.35
44127;BME280;29786;50.798;7.302;2023-04-10T06:30:27;99670;;;7.97;84.75
44127;BME280;29786;50.798;7.302;2023-04-10T06:31:42;99670;;;8.09;83.87
44127;BME280;29786;50.798;7.302;2023-04-10T06:36:38;99660;;;8.28;81.62
44127;BME280;29786;50.798;7.302;2023-04-10T06:41:34;99660;;;8.47;80.44
44127;BME280;29786;50.798;7.302;2023-04-10T06:46:31;99640;;;8.7;77.99
44127;BME280;29786;50.798;7.302;2023-04-10T06:51:27;99660;;;9.14;76.19
44127;BME280;29786;50.798;7.302;2023-04-10T06:57:38;99650;;;9.43;74.95
44127;BME280;29786;50.798;7.302;2023-04-10T07:02:35;99660;;;9.58;73.47
44127;BME280;29786;50.798;7.302;2023-04-10T07:07:31;99640;;;9.79;72.21
44127;BME280;29786;50.798;7.302;2023-04-10T07:12:28;99660;;;10.17;69.22
44127;BME280;29786;50.798;7.302;2023-04-10T07:17:24;99670;;;10.55;68.34
44127;BME280;29786;50.798;7.302;2023-04-10T07:23:35;99670;;;10.87;64.24
44127;BME280;29786;50.798;7.302;2023-04-10T07:28:31;99670;;;11.05;63.2
44127;BME280;29786;50.798;7.302;2023-04-10T07:33:28;99660;;;11.27;62.91
44127;BME280;29786;50.798;7.302;2023-04-10T07:38:24;99660;;;11.71;61.92
44127;BME280;29786;50.798;7.302;2023-04-10T07:44:35;99640;;;11.95;59.4
44127;BME280;29786;50.798;7.302;2023-04-10T07:49:31;99630;;;12.6;58.73
44127;BME280;29786;50.798;7.302;2023-04-10T07:54:30;99630;;;12.64;56.79
44127;BME280;29786;50.798;7.302;2023-04-10T07:56:56;99630;;;12.89;56.64
44127;BME280;29786;50.798;7.302;2023-04-10T08:05:35;99620;;;13.33;54.31
44127;BME280;29786;50.798;7.302;2023-04-10T08:10:32;99610;;;13.09;54.05
44127;BME280;29786;50.798;7.302;2023-04-10T08:15:28;99610;;;13.05;54.9
44127;BME280;29786;50.798;7.302;2023-04-10T08:20:25;99600;;;13.29;54.35
44127;BME280;29786;50.798;7.302;2023-04-10T08:26:36;99600;;;13.69;52.31
44127;BME280;29786;50.798;7.302;2023-04-10T08:31:32;99590;;;13.29;49.91
44127;BME280;29786;50.798;7.302;2023-04-10T08:36:29;99580;;;13.39;50.16
44127;BME280;29786;50.798;7.302;2023-04-10T08:41:25;99580;;;13.52;49.22
44127;BME280;29786;50.798;7.302;2023-04-10T08:47:36;99580;;;13.98;48.54
44127;BME280;29786;50.798;7.302;2023-04-10T08:52:33;99570;;;14.22;47.39
44127;BME280;29786;50.798;7.302;2023-04-10T08:56:15;99570;;;14.13;46.66
44127;BME280;29786;50.798;7.302;2023-04-10T08:57:29;99560;;;14.48;46.73
44127;BME280;29786;50.798;7.302;2023-04-10T09:02:26;99570;;;14.77;46.55
44127;BME280;29786;50.798;7.302;2023-04-10T09:08:36;99560;;;15.02;46.13
44127;BME280;29786;50.798;7.302;2023-04-10T09:13:34;99540;;;15.21;46.2
44127;BME280;29786;50.798;7.302;2023-04-10T09:18:46;99530;;;14.83;44.64
44127;BME280;29786;50.798;7.302;2023-04-10T09:29:37;99510;;;14.92;45.37
44127;BME280;29786;50.798;7.302;2023-04-10T09:34:33;99490;;;14.9;44.25
44127;BME280;29786;50.798;7.302;2023-04-10T09:39:33;99490;;;14.65;43.99
44127;BME280;29786;50.798;7.302;2023-04-10T09:44:30;99480;;;14.98;44.92
44127;BME280;29786;50.798;7.302;2023-04-10T09:50:37;99480;;;15.56;43.24
44127;BME280;29786;50.798;7.302;2023-04-10T09:55:34;99470;;;15.95;43.43
44127;BME280;29786;50.798;7.302;2023-04-10T10:00:31;99480;;;15.6;43.87
44127;BME280;29786;50.798;7.302;2023-04-10T10:05:26;99490;;;15.61;42.91
44127;BME280;29786;50.798;7.302;2023-04-10T10:11:37;99470;;;15.9;42.61
44127;BME280;29786;50.798;7.302;2023-04-10T10:16:36;99470;;;16.14;41.65
44127;BME280;29786;50.798;7.302;2023-04-10T10:21:30;99460;;;16.89;40.05
44127;BME280;29786;50.798;7.302;2023-04-10T10:32:37;99440;;;16.62;40.36
44127;BME280;29786;50.798;7.302;2023-04-10T10:37:34;99440;;;16.85;40.26
44127;BME280;29786;50.798;7.302;2023-04-10T10:42:33;99430;;;16.95;39.55
44127;BME280;29786;50.798;7.302;2023-04-10T10:47:28;99420;;;16.71;38.45
44127;BME280;29786;50.798;7.302;2023-04-10T10:53:39;99400;;;17.31;38.71
44127;BME280;29786;50.798;7.302;2023-04-10T10:59:06;99390;;;17.87;37.91
44127;BME280;29786;50.798;7.302;2023-04-10T11:03:30;99380;;;18.04;37.87
44127;BME280;29786;50.798;7.302;2023-04-10T11:08:35;99370;;;18.4;36.15
44127;BME280;29786;50.798;7.302;2023-04-10T11:14:38;99350;;;18.34;36.24
44127;BME280;29786;50.798;7.302;2023-04-10T11:20:07;99320;;;18.56;36.15
44127;BME280;29786;50.798;7.302;2023-04-10T11:25:03;99300;;;18.74;35.92
44127;BME280;29786;50.798;7.302;2023-04-10T11:29:32;99310;;;19.03;35.15
44127;BME280;29786;50.798;7.302;2023-04-10T11:34:32;99300;;;19.2;34.65
44127;BME280;29786;50.798;7.302;2023-04-10T11:39:29;99290;;;19.18;34.21
44127;BME280;29786;50.798;7.302;2023-04-10T11:44:29;99280;;;18.62;34.82
44127;BME280;29786;50.798;7.302;2023-04-10T11:50:36;99280;;;18.95;34.47
44127;BME280;29786;50.798;7.302;2023-04-10T11:55:36;99270;;;18.58;33.76
44127;BME280;29786;50.798;7.302;2023-04-10T12:00:29;99260;;;18.96;34.53
44127;BME280;29786;50.798;7.302;2023-04-10T12:05:25;99250;;;18.76;33.7
44127;BME280;29786;50.798;7.302;2023-04-10T12:11:36;99240;;;18.06;35.7
44127;BME280;29786;50.798;7.302;2023-04-10T12:16:32;99240;;;18.25;35.88
44127;BME280;29786;50.798;7.302;2023-04-10T12:21:29;99240;;;18.69;35.23
44127;BME280;29786;50.798;7.302;2023-04-10T12:26:25;99240;;;18.37;35.76
44127;BME280;29786;50.798;7.302;2023-04-10T12:32:36;99240;;;18.48;35.29
44127;BME280;29786;50.798;7.302;2023-04-10T12:37:49;99230;;;19.2;35.29
44127;BME280;29786;50.798;7.302;2023-04-10T12:42:29;99210;;;19.33;34.62
44127;BME280;29786;50.798;7.302;2023-04-10T12:47:27;99210;;;19.35;35.07
44127;BME280;29786;50.798;7.302;2023-04-10T12:53:44;99210;;;20.12;34.59
44127;BME280;29786;50.798;7.302;2023-04-10T12:58:33;99200;;;21.18;33.67
44127;BME280;29786;50.798;7.302;2023-04-10T13:03:30;99190;;;22.44;32.2
44127;BME280;29786;50.798;7.302;2023-04-10T13:08:26;99170;;;24.18;30.5
44127;BME280;29786;50.798;7.302;2023-04-10T13:14:37;99160;;;25.09;29.46
44127;BME280;29786;50.798;7.302;2023-04-10T13:19:33;99150;;;25.1;29.06
44127;BME280;29786;50.798;7.302;2023-04-10T13:24:30;99150;;;26.07;27.08
44127;BME280;29786;50.798;7.302;2023-04-10T13:29:26;99130;;;25.49;28.62
44127;BME280;29786;50.798;7.302;2023-04-10T13:35:37;99120;;;24.28;28.83
44127;BME280;29786;50.798;7.302;2023-04-10T13:40:33;99110;;;22.51;31.74
44127;BME280;29786;50.798;7.302;2023-04-10T13:45:31;99120;;;22.1;31.48
44127;BME280;29786;50.798;7.302;2023-04-10T13:50:27;99110;;;20.43;34.54
44127;BME280;29786;50.798;7.302;2023-04-10T13:56:37;99080;;;19.91;32.93
44127;BME280;29786;50.798;7.302;2023-04-10T14:01:34;99060;;;19.96;35.53
44127;BME280;29786;50.798;7.302;2023-04-10T14:06:30;99040;;;19.19;33.71
44127;BME280;29786;50.798;7.302;2023-04-10T14:11:27;99030;;;18.7;33.78
44127;BME280;29786;50.798;7.302;2023-04-10T14:17:38;99010;;;19.77;34.78
44127;BME280;29786;50.798;7.302;2023-04-10T14:22:34;99000;;;20.37;34.71
44127;BME280;29786;50.798;7.302;2023-04-10T14:27:31;98980;;;19.95;34.1
44127;BME280;29786;50.798;7.302;2023-04-10T14:32:27;99000;;;20.08;33.42
44127;BME280;29786;50.798;7.302;2023-04-10T14:38:38;98990;;;20.12;35.65
44127;BME280;29786;50.798;7.302;2023-04-10T14:43:35;98960;;;19.73;34.53
44127;BME280;29786;50.798;7.302;2023-04-10T14:48:31;98930;;;19.43;33.66
44127;BME280;29786;50.798;7.302;2023-04-10T14:53:27;98950;;;19.06;32.94
44127;BME280;29786;50.798;7.302;2023-04-10T14:59:38;98940;;;18.58;34.36
44127;BME280;29786;50.798;7.302;2023-04-10T15:04:35;98930;;;18.33;35.68
44127;BME280;29786;50.798;7.302;2023-04-10T15:09:31;98910;;;18.21;35.58
44127;BME280;29786;50.798;7.302;2023-04-10T15:14:28;98920;;;18.57;33.58
44127;BME280;29786;50.798;7.302;2023-04-10T15:19:24;98920;;;18.7;33.24
44127;BME280;29786;50.798;7.302;2023-04-10T15:25:35;98920;;;18.66;34.62
44127;BME280;29786;50.798;7.302;2023-04-10T15:35:28;98920;;;19.1;32.43
44127;BME280;29786;50.798;7.302;2023-04-10T15:40:24;98930;;;18.29;33.66
44127;BME280;29786;50.798;7.302;2023-04-10T15:46:35;98950;;;17.98;33.26
44127;BME280;29786;50.798;7.302;2023-04-10T15:51:32;98950;;;17.46;34.16
44127;BME280;29786;50.798;7.302;2023-04-10T15:56:28;98940;;;17.52;34.7
44127;BME280;29786;50.798;7.302;2023-04-10T16:01:25;98920;;;17.12;35.67
44127;BME280;29786;50.798;7.302;2023-04-10T16:07:36;98930;;;16.77;36.66
44127;BME280;29786;50.798;7.302;2023-04-10T16:12:32;98930;;;16.52;37.14
44127;BME280;29786;50.798;7.302;2023-04-10T16:17:29;98920;;;16.39;37.73
44127;BME280;29786;50.798;7.302;2023-04-10T16:22:25;98920;;;16.29;38.16
44127;BME280;29786;50.798;7.302;2023-04-10T16:28:36;98890;;;16.16;38.34
44127;BME280;29786;50.798;7.302;2023-04-10T16:33:32;98880;;;16.04;38.62
44127;BME280;29786;50.798;7.302;2023-04-10T16:38:29;98890;;;15.94;39.93
44127;BME280;29786;50.798;7.302;2023-04-10T16:43:25;98900;;;15.78;39.67
44127;BME280;29786;50.798;7.302;2023-04-10T16:49:36;98880;;;15.76;40.08
44127;BME280;29786;50.798;7.302;2023-04-10T16:54:32;98880;;;15.65;40.01
44127;BME280;29786;50.798;7.302;2023-04-10T16:59:30;98870;;;15.56;40.43
44127;BME280;29786;50.798;7.302;2023-04-10T17:04:26;98850;;;15.49;41.99
44127;BME280;29786;50.798;7.302;2023-04-10T17:10:36;98860;;;15.34;42.47
44127;BME280;29786;50.798;7.302;2023-04-10T17:15:33;98830;;;15.3;42.28
44127;BME280;29786;50.798;7.302;2023-04-10T17:20:29;98830;;;15.32;42.58
44127;BME280;29786;50.798;7.302;2023-04-10T17:25:26;98800;;;15.28;43.21
44127;BME280;29786;50.798;7.302;2023-04-10T17:31:36;98810;;;15.22;43.43
44127;BME280;29786;50.798;7.302;2023-04-10T17:36:33;98800;;;15.2;45
44127;BME280;29786;50.798;7.302;2023-04-10T17:37:47;98800;;;15.02;46.02
44127;BME280;29786;50.798;7.302;2023-04-10T17:41:30;98800;;;14.81;46.83
44127;BME280;29786;50.798;7.302;2023-04-10T17:46:26;98780;;;14.56;50.02
44127;BME280;29786;50.798;7.302;2023-04-10T17:52:37;98770;;;14.32;52.99
44127;BME280;29786;50.798;7.302;2023-04-10T17:57:33;98760;;;14.26;52.35
44127;BME280;29786;50.798;7.302;2023-04-10T18:02:30;98760;;;14.14;55.9
44127;BME280;29786;50.798;7.302;2023-04-10T18:07:26;98750;;;14.06;54.63
44127;BME280;29786;50.798;7.302;2023-04-10T18:13:37;98730;;;14.14;54.68
44127;BME280;29786;50.798;7.302;2023-04-10T18:18:33;98750;;;14.06;54.41
44127;BME280;29786;50.798;7.302;2023-04-10T18:23:30;98740;;;14.25;53.7
44127;BME280;29786;50.798;7.302;2023-04-10T18:28:27;98750;;;14.33;53.37
44127;BME280;29786;50.798;7.302;2023-04-10T18:34:37;98760;;;14.19;54.73
44127;BME280;29786;50.798;7.302;2023-04-10T18:39:34;98770;;;13.83;59.63
44127;BME280;29786;50.798;7.302;2023-04-10T18:44:30;98770;;;13.61;64.1
44127;BME280;29786;50.798;7.302;2023-04-10T18:49:27;98750;;;13.3;69.73
44127;BME280;29786;50.798;7.302;2023-04-10T18:55:38;98740;;;13.38;70.29
44127;BME280;29786;50.798;7.302;2023-04-10T19:00:34;98740;;;13.43;70.06
44127;BME280;29786;50.798;7.302;2023-04-10T19:05:31;98710;;;13.2;76.16
44127;BME280;29786;50.798;7.302;2023-04-10T19:10:27;98730;;;13.29;76.59
44127;BME280;29786;50.798;7.302;2023-04-10T19:15:24;98730;;;13.25;79.59
44127;BME280;29786;50.798;7.302;2023-04-10T19:21:34;98720;;;13.04;82.78
44127;BME280;29786;50.798;7.302;2023-04-10T19:26:31;98690;;;13.07;83.13
44127;BME280;29786;50.798;7.302;2023-04-10T19:31:27;98700;;;13.11;83.22
44127;BME280;29786;50.798;7.302;2023-04-10T19:36:24;98700;;;12.9;84.45
44127;BME280;29786;50.798;7.302;2023-04-10T19:42:35;98710;;;12.93;87.47
44127;BME280;29786;50.798;7.302;2023-04-10T19:47:31;98700;;;12.71;87.52
44127;BME280;29786;50.798;7.302;2023-04-10T19:52:28;98710;;;13.07;82.16
44127;BME280;29786;50.798;7.302;2023-04-10T19:58:38;98720;;;13.51;75.92
44127;BME280;29786;50.798;7.302;2023-04-10T20:03:35;98730;;;13.5;76.42
44127;BME280;29786;50.798;7.302;2023-04-10T20:13:28;98750;;;12.21;100
44127;BME280;29786;50.798;7.302;2023-04-10T20:18:25;98760;;;11.8;100
44127;BME280;29786;50.798;7.302;2023-04-10T20:24:35;98770;;;11.07;100
44127;BME280;29786;50.798;7.302;2023-04-10T20:29:32;98780;;;10.81;100
44127;BME280;29786;50.798;7.302;2023-04-10T20:34:28;98770;;;10.52;100
44127;BME280;29786;50.798;7.302;2023-04-10T20:45:35;98760;;;10.41;100
44127;BME280;29786;50.798;7.302;2023-04-10T20:50:32;98770;;;10.36;100
44127;BME280;29786;50.798;7.302;2023-04-10T20:55:28;98770;;;10.24;100
44127;BME280;29786;50.798;7.302;2023-04-10T21:00:25;98790;;;10.12;100
44127;BME280;29786;50.798;7.302;2023-04-10T21:06:36;98800;;;9.93;100
44127;BME280;29786;50.798;7.302;2023-04-10T21:11:32;98790;;;9.29;100
44127;BME280;29786;50.798;7.302;2023-04-10T21:16:29;98800;;;8.91;100
44127;BME280;29786;50.798;7.302;2023-04-10T21:21:25;98800;;;8.78;100
44127;BME280;29786;50.798;7.302;2023-04-10T21:27:36;98800;;;8.75;100
44127;BME280;29786;50.798;7.302;2023-04-10T21:32:32;98810;;;8.84;100
44127;BME280;29786;50.798;7.302;2023-04-10T21:37:29;98800;;;8.96;100
44127;BME280;29786;50.798;7.302;2023-04-10T21:42:25;98800;;;9.06;100
44127;BME280;29786;50.798;7.302;2023-04-10T21:48:36;98790;;;9.16;100
44127;BME280;29786;50.798;7.302;2023-04-10T21:53:33;98800;;;9.26;100
44127;BME280;29786;50.798;7.302;2023-04-10T21:58:29;98810;;;9.22;100
44127;BME280;29786;50.798;7.302;2023-04-10T22:03:26;98810;;;9.2;100
44127;BME280;29786;50.798;7.302;2023-04-10T22:09:36;98770;;;9.1;100
44127;BME280;29786;50.798;7.302;2023-04-10T22:14:33;98760;;;9.08;100
44127;BME280;29786;50.798;7.302;2023-04-10T22:19:29;98730;;;9;100
44127;BME280;29786;50.798;7.302;2023-04-10T22:24:26;98700;;;9.18;100
44127;BME280;29786;50.798;7.302;2023-04-10T22:30:37;98680;;;9.21;100
44127;BME280;29786;50.798;7.302;2023-04-10T22:35:33;98720;;;9.25;100
44127;BME280;29786;50.798;7.302;2023-04-10T22:40:30;98710;;;9.1;100
44127;BME280;29786;50.798;7.302;2023-04-10T22:45:26;98740;;;8.93;100
44127;BME280;29786;50.798;7.302;2023-04-10T22:51:37;98730;;;8.87;100
44127;BME280;29786;50.798;7.302;2023-04-10T22:56:33;98700;;;8.89;100
44127;BME280;29786;50.798;7.302;2023-04-10T23:01:30;98670;;;8.93;100
44127;BME280;29786;50.798;7.302;2023-04-10T23:06:26;98670;;;8.97;100
44127;BME280;29786;50.798;7.302;2023-04-10T23:12:37;98670;;;9.07;100
44127;BME280;29786;50.798;7.302;2023-04-10T23:17:34;98690;;;9.08;100
44127;BME280;29786;50.798;7.302;2023-04-10T23:22:30;98670;;;9.04;100
44127;BME280;29786;50.798;7.302;2023-04-10T23:27:27;98670;;;9.07;100
44127;BME280;29786;50.798;7.302;2023-04-10T23:33:37;98640;;;8.99;100
44127;BME280;29786;50.798;7.302;2023-04-10T23:38:34;98670;;;8.95;100
44127;BME280;29786;50.798;7.302;2023-04-10T23:43:31;98650;;;8.72;100
44127;BME280;29786;50.798;7.302;2023-04-10T23:48:27;98680;;;8.82;100
44127;BME280;29786;50.798;7.302;2023-04-10T23:54:38;98690;;;8.82;100
44127;BME280;29786;50.798;7.302;2023-04-10T23:58:28;98690;;;8.72;100
